sensor_id;sensor_type;location;lat;lon;timestamp;P1;durP1;ratioP1;P2;durP2;ratioP2
11151;SDS011;5630;49.342;10.802;2022-12-24T00:00:54;9.53;;;2.90;;
11151;SDS011;5630;49.342;10.802;2022-12-24T00:03:21;7.57;;;2.37;;
11151;SDS011;5630;49.342;10.802;2022-12-24T00:05:47;9.47;;;2.40;;
11151;SDS011;5630;49.342;10.802;2022-12-24T00:08:13;7.70;;;2.47;;
11151;SDS011;5630;49.342;10.802;2022-12-24T00:10:38;11.00;;;3.20;;
11151;SDS011;5630;49.342;10.802;2022-12-24T00:13:04;8.13;;;2.57;;
11151;SDS011;5630;49.342;10.802;2022-12-24T00:15:29;13.70;;;2.70;;
11151;SDS011;5630;49.342;10.802;2022-12-24T00:17:55;10.17;;;2.40;;
11151;SDS011;5630;49.342;10.802;2022-12-24T00:20:20;7.50;;;2.50;;
11151;SDS011;5630;49.342;10.802;2022-12-24T00:22:46;6.77;;;2.33;;
11151;SDS011;5630;49.342;10.802;2022-12-24T00:25:11;10.93;;;2.53;;
11151;SDS011;5630;49.342;10.802;2022-12-24T00:27:37;8.47;;;2.70;;
11151;SDS011;5630;49.342;10.802;2022-12-24T00:30:03;10.40;;;2.83;;
11151;SDS011;5630;49.342;10.802;2022-12-24T00:32:28;11.90;;;2.70;;
11151;SDS011;5630;49.342;10.802;2022-12-24T00:34:54;7.97;;;2.63;;
11151;SDS011;5630;49.342;10.802;2022-12-24T00:37:19;9.23;;;2.50;;
11151;SDS011;5630;49.342;10.802;2022-12-24T00:39:45;9.73;;;2.70;;
11151;SDS011;5630;49.342;10.802;2022-12-24T00:42:10;12.53;;;3.23;;
11151;SDS011;5630;49.342;10.802;2022-12-24T00:44:36;11.03;;;2.63;;
11151;SDS011;5630;49.342;10.802;2022-12-24T00:47:02;7.73;;;2.53;;
11151;SDS011;5630;49.342;10.802;2022-12-24T00:49:27;11.30;;;2.77;;
11151;SDS011;5630;49.342;10.802;2022-12-24T00:51:53;10.07;;;2.60;;
11151;SDS011;5630;49.342;10.802;2022-12-24T00:54:18;12.53;;;2.53;;
11151;SDS011;5630;49.342;10.802;2022-12-24T00:56:44;9.67;;;2.57;;
11151;SDS011;5630;49.342;10.802;2022-12-24T00:59:09;9.93;;;2.93;;
11151;SDS011;5630;49.342;10.802;2022-12-24T01:01:35;11.67;;;2.57;;
11151;SDS011;5630;49.342;10.802;2022-12-24T01:04:01;8.37;;;2.67;;
11151;SDS011;5630;49.342;10.802;2022-12-24T01:06:45;14.13;;;3.03;;
11151;SDS011;5630;49.342;10.802;2022-12-24T01:09:10;9.83;;;2.60;;
11151;SDS011;5630;49.342;10.802;2022-12-24T01:11:36;7.97;;;2.47;;
11151;SDS011;5630;49.342;10.802;2022-12-24T01:14:01;10.27;;;2.57;;
11151;SDS011;5630;49.342;10.802;2022-12-24T01:16:27;14.13;;;3.00;;
11151;SDS011;5630;49.342;10.802;2022-12-24T01:18:52;7.87;;;2.53;;
11151;SDS011;5630;49.342;10.802;2022-12-24T01:21:18;9.20;;;2.57;;
11151;SDS011;5630;49.342;10.802;2022-12-24T01:23:44;13.13;;;2.53;;
11151;SDS011;5630;49.342;10.802;2022-12-24T01:26:09;10.53;;;2.50;;
11151;SDS011;5630;49.342;10.802;2022-12-24T01:28:38;8.37;;;2.33;;
11151;SDS011;5630;49.342;10.802;2022-12-24T01:31:15;10.10;;;2.80;;
11151;SDS011;5630;49.342;10.802;2022-12-24T01:33:42;8.03;;;2.63;;
11151;SDS011;5630;49.342;10.802;2022-12-24T01:36:08;8.63;;;2.43;;
11151;SDS011;5630;49.342;10.802;2022-12-24T01:38:34;8.47;;;2.30;;
11151;SDS011;5630;49.342;10.802;2022-12-24T01:41:00;7.93;;;2.53;;
11151;SDS011;5630;49.342;10.802;2022-12-24T01:43:44;10.90;;;2.57;;
11151;SDS011;5630;49.342;10.802;2022-12-24T01:46:14;13.30;;;2.77;;
11151;SDS011;5630;49.342;10.802;2022-12-24T01:48:54;10.83;;;2.43;;
11151;SDS011;5630;49.342;10.802;2022-12-24T01:51:29;7.23;;;2.30;;
11151;SDS011;5630;49.342;10.802;2022-12-24T01:54:03;7.43;;;2.30;;
11151;SDS011;5630;49.342;10.802;2022-12-24T01:56:33;8.17;;;2.60;;
11151;SDS011;5630;49.342;10.802;2022-12-24T01:59:04;8.30;;;2.20;;
11151;SDS011;5630;49.342;10.802;2022-12-24T02:01:32;9.40;;;2.50;;
11151;SDS011;5630;49.342;10.802;2022-12-24T02:03:58;10.13;;;2.20;;
11151;SDS011;5630;49.342;10.802;2022-12-24T02:06:29;9.97;;;2.90;;
11151;SDS011;5630;49.342;10.802;2022-12-24T02:08:57;10.30;;;2.67;;
11151;SDS011;5630;49.342;10.802;2022-12-24T02:11:23;9.17;;;3.10;;
11151;SDS011;5630;49.342;10.802;2022-12-24T02:13:50;14.57;;;3.10;;
11151;SDS011;5630;49.342;10.802;2022-12-24T02:16:28;13.00;;;3.20;;
11151;SDS011;5630;49.342;10.802;2022-12-24T02:22:27;12.77;;;2.87;;
11151;SDS011;5630;49.342;10.802;2022-12-24T02:30:37;9.80;;;2.50;;
11151;SDS011;5630;49.342;10.802;2022-12-24T02:33:12;9.20;;;2.50;;
11151;SDS011;5630;49.342;10.802;2022-12-24T02:35:51;13.17;;;3.13;;
11151;SDS011;5630;49.342;10.802;2022-12-24T02:38:45;9.03;;;2.70;;
11151;SDS011;5630;49.342;10.802;2022-12-24T02:41:17;10.50;;;2.80;;
11151;SDS011;5630;49.342;10.802;2022-12-24T02:43:47;13.47;;;3.43;;
11151;SDS011;5630;49.342;10.802;2022-12-24T02:46:19;11.67;;;2.70;;
11151;SDS011;5630;49.342;10.802;2022-12-24T02:48:49;11.20;;;3.30;;
11151;SDS011;5630;49.342;10.802;2022-12-24T02:51:15;9.93;;;3.03;;
11151;SDS011;5630;49.342;10.802;2022-12-24T02:53:45;12.23;;;3.03;;
11151;SDS011;5630;49.342;10.802;2022-12-24T03:02:02;16.87;;;3.07;;
11151;SDS011;5630;49.342;10.802;2022-12-24T03:04:46;9.07;;;2.63;;
11151;SDS011;5630;49.342;10.802;2022-12-24T03:07:40;11.33;;;3.27;;
11151;SDS011;5630;49.342;10.802;2022-12-24T03:12:46;9.90;;;2.60;;
11151;SDS011;5630;49.342;10.802;2022-12-24T03:15:19;8.10;;;2.47;;
11151;SDS011;5630;49.342;10.802;2022-12-24T03:17:47;9.83;;;2.77;;
11151;SDS011;5630;49.342;10.802;2022-12-24T03:20:17;11.17;;;3.00;;
11151;SDS011;5630;49.342;10.802;2022-12-24T03:22:46;11.30;;;2.70;;
11151;SDS011;5630;49.342;10.802;2022-12-24T03:25:12;7.80;;;2.17;;
11151;SDS011;5630;49.342;10.802;2022-12-24T03:27:37;8.47;;;2.53;;
11151;SDS011;5630;49.342;10.802;2022-12-24T03:30:07;12.07;;;2.33;;
11151;SDS011;5630;49.342;10.802;2022-12-24T03:32:34;12.23;;;2.50;;
11151;SDS011;5630;49.342;10.802;2022-12-24T03:35:00;11.97;;;2.60;;
11151;SDS011;5630;49.342;10.802;2022-12-24T03:37:25;11.37;;;3.53;;
11151;SDS011;5630;49.342;10.802;2022-12-24T03:39:51;10.70;;;2.90;;
11151;SDS011;5630;49.342;10.802;2022-12-24T03:42:17;7.37;;;2.50;;
11151;SDS011;5630;49.342;10.802;2022-12-24T03:44:43;10.63;;;2.90;;
11151;SDS011;5630;49.342;10.802;2022-12-24T03:47:08;12.33;;;3.40;;
11151;SDS011;5630;49.342;10.802;2022-12-24T03:49:34;12.93;;;2.63;;
11151;SDS011;5630;49.342;10.802;2022-12-24T03:51:59;10.37;;;2.63;;
11151;SDS011;5630;49.342;10.802;2022-12-24T03:54:25;12.40;;;2.97;;
11151;SDS011;5630;49.342;10.802;2022-12-24T03:56:51;13.03;;;2.83;;
11151;SDS011;5630;49.342;10.802;2022-12-24T03:59:16;9.67;;;2.60;;
11151;SDS011;5630;49.342;10.802;2022-12-24T04:01:42;6.63;;;2.40;;
11151;SDS011;5630;49.342;10.802;2022-12-24T04:04:07;10.90;;;2.60;;
11151;SDS011;5630;49.342;10.802;2022-12-24T04:06:33;8.67;;;2.30;;
11151;SDS011;5630;49.342;10.802;2022-12-24T04:08:59;10.70;;;2.60;;
11151;SDS011;5630;49.342;10.802;2022-12-24T04:11:28;12.67;;;2.40;;
11151;SDS011;5630;49.342;10.802;2022-12-24T04:13:55;7.60;;;2.10;;
11151;SDS011;5630;49.342;10.802;2022-12-24T04:16:21;10.83;;;2.80;;
11151;SDS011;5630;49.342;10.802;2022-12-24T04:18:47;8.33;;;2.30;;
11151;SDS011;5630;49.342;10.802;2022-12-24T04:21:12;8.43;;;2.37;;
11151;SDS011;5630;49.342;10.802;2022-12-24T04:23:38;7.70;;;2.63;;
11151;SDS011;5630;49.342;10.802;2022-12-24T04:26:06;10.57;;;2.60;;
11151;SDS011;5630;49.342;10.802;2022-12-24T04:28:33;9.83;;;2.50;;
11151;SDS011;5630;49.342;10.802;2022-12-24T04:31:00;6.60;;;2.27;;
11151;SDS011;5630;49.342;10.802;2022-12-24T04:33:26;15.30;;;2.77;;
11151;SDS011;5630;49.342;10.802;2022-12-24T04:35:52;10.83;;;2.77;;
11151;SDS011;5630;49.342;10.802;2022-12-24T04:38:18;11.10;;;3.03;;
11151;SDS011;5630;49.342;10.802;2022-12-24T04:40:44;9.93;;;2.67;;
11151;SDS011;5630;49.342;10.802;2022-12-24T04:43:09;10.23;;;2.90;;
11151;SDS011;5630;49.342;10.802;2022-12-24T04:45:35;11.23;;;2.43;;
11151;SDS011;5630;49.342;10.802;2022-12-24T04:48:00;10.40;;;2.50;;
11151;SDS011;5630;49.342;10.802;2022-12-24T04:50:26;7.50;;;2.60;;
11151;SDS011;5630;49.342;10.802;2022-12-24T04:52:51;14.10;;;2.80;;
11151;SDS011;5630;49.342;10.802;2022-12-24T04:55:17;8.53;;;2.60;;
11151;SDS011;5630;49.342;10.802;2022-12-24T04:57:42;9.13;;;2.80;;
11151;SDS011;5630;49.342;10.802;2022-12-24T05:00:09;10.07;;;2.57;;
11151;SDS011;5630;49.342;10.802;2022-12-24T05:02:35;10.67;;;2.70;;
11151;SDS011;5630;49.342;10.802;2022-12-24T05:05:01;12.63;;;2.97;;
11151;SDS011;5630;49.342;10.802;2022-12-24T05:07:27;13.17;;;2.83;;
11151;SDS011;5630;49.342;10.802;2022-12-24T05:09:53;14.77;;;3.40;;
11151;SDS011;5630;49.342;10.802;2022-12-24T05:12:18;13.77;;;2.93;;
11151;SDS011;5630;49.342;10.802;2022-12-24T05:14:44;16.27;;;3.20;;
11151;SDS011;5630;49.342;10.802;2022-12-24T05:17:09;12.87;;;2.77;;
11151;SDS011;5630;49.342;10.802;2022-12-24T05:19:35;9.93;;;2.90;;
11151;SDS011;5630;49.342;10.802;2022-12-24T05:22:01;13.07;;;3.33;;
11151;SDS011;5630;49.342;10.802;2022-12-24T05:24:55;12.70;;;3.07;;
11151;SDS011;5630;49.342;10.802;2022-12-24T05:27:40;12.47;;;3.50;;
11151;SDS011;5630;49.342;10.802;2022-12-24T05:30:06;10.77;;;2.90;;
11151;SDS011;5630;49.342;10.802;2022-12-24T05:32:32;9.33;;;2.73;;
11151;SDS011;5630;49.342;10.802;2022-12-24T05:34:57;11.43;;;2.60;;
11151;SDS011;5630;49.342;10.802;2022-12-24T05:37:23;9.70;;;2.97;;
11151;SDS011;5630;49.342;10.802;2022-12-24T05:39:48;10.50;;;2.77;;
11151;SDS011;5630;49.342;10.802;2022-12-24T05:42:14;13.30;;;3.03;;
11151;SDS011;5630;49.342;10.802;2022-12-24T05:44:39;12.60;;;3.00;;
11151;SDS011;5630;49.342;10.802;2022-12-24T05:47:05;14.50;;;3.17;;
11151;SDS011;5630;49.342;10.802;2022-12-24T05:49:30;18.17;;;5.40;;
11151;SDS011;5630;49.342;10.802;2022-12-24T05:51:56;13.73;;;3.80;;
11151;SDS011;5630;49.342;10.802;2022-12-24T05:54:22;10.17;;;3.37;;
11151;SDS011;5630;49.342;10.802;2022-12-24T05:56:47;7.57;;;2.50;;
11151;SDS011;5630;49.342;10.802;2022-12-24T05:59:13;16.80;;;3.70;;
11151;SDS011;5630;49.342;10.802;2022-12-24T06:01:39;15.03;;;3.27;;
11151;SDS011;5630;49.342;10.802;2022-12-24T06:04:04;14.43;;;2.90;;
11151;SDS011;5630;49.342;10.802;2022-12-24T06:06:30;7.93;;;2.60;;
11151;SDS011;5630;49.342;10.802;2022-12-24T06:08:55;14.47;;;3.40;;
11151;SDS011;5630;49.342;10.802;2022-12-24T06:11:22;12.70;;;2.83;;
11151;SDS011;5630;49.342;10.802;2022-12-24T06:13:51;12.20;;;2.93;;
11151;SDS011;5630;49.342;10.802;2022-12-24T06:16:17;11.73;;;3.00;;
11151;SDS011;5630;49.342;10.802;2022-12-24T06:18:44;10.50;;;2.90;;
11151;SDS011;5630;49.342;10.802;2022-12-24T06:21:09;11.07;;;2.90;;
11151;SDS011;5630;49.342;10.802;2022-12-24T06:23:37;12.33;;;2.80;;
11151;SDS011;5630;49.342;10.802;2022-12-24T06:26:04;13.80;;;3.53;;
11151;SDS011;5630;49.342;10.802;2022-12-24T06:28:32;16.20;;;3.53;;
11151;SDS011;5630;49.342;10.802;2022-12-24T06:31:00;13.13;;;3.37;;
11151;SDS011;5630;49.342;10.802;2022-12-24T06:33:26;18.77;;;2.70;;
11151;SDS011;5630;49.342;10.802;2022-12-24T06:35:52;11.50;;;3.40;;
11151;SDS011;5630;49.342;10.802;2022-12-24T06:38:18;15.03;;;3.30;;
11151;SDS011;5630;49.342;10.802;2022-12-24T06:40:44;14.53;;;3.10;;
11151;SDS011;5630;49.342;10.802;2022-12-24T06:43:10;11.77;;;2.93;;
11151;SDS011;5630;49.342;10.802;2022-12-24T06:45:37;13.10;;;2.97;;
11151;SDS011;5630;49.342;10.802;2022-12-24T06:48:03;19.50;;;3.27;;
11151;SDS011;5630;49.342;10.802;2022-12-24T06:50:29;14.80;;;3.60;;
11151;SDS011;5630;49.342;10.802;2022-12-24T06:52:55;14.07;;;3.40;;
11151;SDS011;5630;49.342;10.802;2022-12-24T06:55:20;12.53;;;3.33;;
11151;SDS011;5630;49.342;10.802;2022-12-24T06:57:46;12.97;;;3.30;;
11151;SDS011;5630;49.342;10.802;2022-12-24T07:00:11;16.53;;;3.33;;
11151;SDS011;5630;49.342;10.802;2022-12-24T07:02:44;20.20;;;3.40;;
11151;SDS011;5630;49.342;10.802;2022-12-24T07:05:10;14.70;;;3.23;;
11151;SDS011;5630;49.342;10.802;2022-12-24T07:07:40;13.50;;;3.27;;
11151;SDS011;5630;49.342;10.802;2022-12-24T07:10:09;13.80;;;3.20;;
11151;SDS011;5630;49.342;10.802;2022-12-24T07:12:36;17.63;;;3.53;;
11151;SDS011;5630;49.342;10.802;2022-12-24T07:15:02;16.87;;;4.00;;
11151;SDS011;5630;49.342;10.802;2022-12-24T07:17:28;14.80;;;3.57;;
11151;SDS011;5630;49.342;10.802;2022-12-24T07:19:54;14.80;;;3.40;;
11151;SDS011;5630;49.342;10.802;2022-12-24T07:22:19;13.80;;;3.40;;
11151;SDS011;5630;49.342;10.802;2022-12-24T07:24:45;15.77;;;3.77;;
11151;SDS011;5630;49.342;10.802;2022-12-24T07:27:11;19.17;;;3.97;;
11151;SDS011;5630;49.342;10.802;2022-12-24T07:29:37;19.03;;;3.67;;
11151;SDS011;5630;49.342;10.802;2022-12-24T07:32:03;19.93;;;3.77;;
11151;SDS011;5630;49.342;10.802;2022-12-24T07:34:28;18.80;;;3.90;;
11151;SDS011;5630;49.342;10.802;2022-12-24T07:36:54;19.00;;;3.60;;
11151;SDS011;5630;49.342;10.802;2022-12-24T07:39:20;13.57;;;3.73;;
11151;SDS011;5630;49.342;10.802;2022-12-24T07:41:45;14.07;;;4.10;;
11151;SDS011;5630;49.342;10.802;2022-12-24T07:44:11;16.13;;;3.60;;
11151;SDS011;5630;49.342;10.802;2022-12-24T07:46:39;15.37;;;3.70;;
11151;SDS011;5630;49.342;10.802;2022-12-24T07:49:05;20.33;;;4.50;;
11151;SDS011;5630;49.342;10.802;2022-12-24T07:51:30;19.63;;;4.33;;
11151;SDS011;5630;49.342;10.802;2022-12-24T07:53:56;20.60;;;4.03;;
11151;SDS011;5630;49.342;10.802;2022-12-24T07:56:21;14.70;;;3.80;;
11151;SDS011;5630;49.342;10.802;2022-12-24T07:58:48;17.13;;;3.93;;
11151;SDS011;5630;49.342;10.802;2022-12-24T08:01:14;19.83;;;4.93;;
11151;SDS011;5630;49.342;10.802;2022-12-24T08:03:40;15.97;;;3.27;;
11151;SDS011;5630;49.342;10.802;2022-12-24T08:06:06;16.20;;;3.80;;
11151;SDS011;5630;49.342;10.802;2022-12-24T08:08:32;14.70;;;3.83;;
11151;SDS011;5630;49.342;10.802;2022-12-24T08:11:01;17.33;;;4.03;;
11151;SDS011;5630;49.342;10.802;2022-12-24T08:13:29;23.33;;;4.50;;
11151;SDS011;5630;49.342;10.802;2022-12-24T08:15:55;15.63;;;3.90;;
11151;SDS011;5630;49.342;10.802;2022-12-24T08:18:22;16.33;;;3.73;;
11151;SDS011;5630;49.342;10.802;2022-12-24T08:20:47;18.10;;;4.57;;
11151;SDS011;5630;49.342;10.802;2022-12-24T08:23:14;19.77;;;4.03;;
11151;SDS011;5630;49.342;10.802;2022-12-24T08:25:43;17.30;;;3.97;;
11151;SDS011;5630;49.342;10.802;2022-12-24T08:28:11;15.93;;;3.90;;
11151;SDS011;5630;49.342;10.802;2022-12-24T08:30:37;18.07;;;4.50;;
11151;SDS011;5630;49.342;10.802;2022-12-24T08:33:03;21.70;;;4.63;;
11151;SDS011;5630;49.342;10.802;2022-12-24T08:35:29;19.37;;;4.30;;
11151;SDS011;5630;49.342;10.802;2022-12-24T08:37:54;21.63;;;5.90;;
11151;SDS011;5630;49.342;10.802;2022-12-24T08:40:21;24.43;;;5.33;;
11151;SDS011;5630;49.342;10.802;2022-12-24T08:42:46;19.77;;;4.60;;
11151;SDS011;5630;49.342;10.802;2022-12-24T08:45:12;21.33;;;4.47;;
11151;SDS011;5630;49.342;10.802;2022-12-24T08:47:38;19.30;;;4.50;;
11151;SDS011;5630;49.342;10.802;2022-12-24T08:50:04;26.17;;;5.63;;
11151;SDS011;5630;49.342;10.802;2022-12-24T08:52:31;20.73;;;4.63;;
11151;SDS011;5630;49.342;10.802;2022-12-24T08:54:57;16.63;;;4.97;;
11151;SDS011;5630;49.342;10.802;2022-12-24T08:57:22;18.97;;;4.60;;
11151;SDS011;5630;49.342;10.802;2022-12-24T08:59:48;26.87;;;4.67;;
11151;SDS011;5630;49.342;10.802;2022-12-24T09:02:14;21.13;;;5.30;;
11151;SDS011;5630;49.342;10.802;2022-12-24T09:04:39;18.67;;;4.80;;
11151;SDS011;5630;49.342;10.802;2022-12-24T09:07:05;21.40;;;4.87;;
11151;SDS011;5630;49.342;10.802;2022-12-24T09:09:32;23.73;;;5.10;;
11151;SDS011;5630;49.342;10.802;2022-12-24T09:11:57;16.57;;;4.43;;
11151;SDS011;5630;49.342;10.802;2022-12-24T09:14:23;19.10;;;4.17;;
11151;SDS011;5630;49.342;10.802;2022-12-24T09:16:48;23.03;;;4.30;;
11151;SDS011;5630;49.342;10.802;2022-12-24T09:19:14;18.83;;;4.10;;
11151;SDS011;5630;49.342;10.802;2022-12-24T09:21:39;21.53;;;5.23;;
11151;SDS011;5630;49.342;10.802;2022-12-24T09:24:05;21.27;;;4.70;;
11151;SDS011;5630;49.342;10.802;2022-12-24T09:26:31;23.77;;;5.27;;
11151;SDS011;5630;49.342;10.802;2022-12-24T09:28:57;22.17;;;5.57;;
11151;SDS011;5630;49.342;10.802;2022-12-24T09:31:24;18.03;;;5.07;;
11151;SDS011;5630;49.342;10.802;2022-12-24T09:33:50;15.30;;;3.60;;
11151;SDS011;5630;49.342;10.802;2022-12-24T09:36:16;24.00;;;4.37;;
11151;SDS011;5630;49.342;10.802;2022-12-24T09:38:43;22.87;;;4.60;;
11151;SDS011;5630;49.342;10.802;2022-12-24T09:43:48;17.97;;;4.43;;
11151;SDS011;5630;49.342;10.802;2022-12-24T09:46:27;18.33;;;4.57;;
11151;SDS011;5630;49.342;10.802;2022-12-24T09:48:58;17.70;;;4.50;;
11151;SDS011;5630;49.342;10.802;2022-12-24T09:51:31;23.30;;;4.33;;
11151;SDS011;5630;49.342;10.802;2022-12-24T09:54:20;23.30;;;4.73;;
11151;SDS011;5630;49.342;10.802;2022-12-24T09:56:49;19.03;;;4.70;;
11151;SDS011;5630;49.342;10.802;2022-12-24T09:59:17;21.73;;;4.87;;
11151;SDS011;5630;49.342;10.802;2022-12-24T10:01:49;23.53;;;4.63;;
11151;SDS011;5630;49.342;10.802;2022-12-24T10:04:18;18.17;;;4.60;;
11151;SDS011;5630;49.342;10.802;2022-12-24T10:09:43;16.10;;;4.27;;
11151;SDS011;5630;49.342;10.802;2022-12-24T10:20:41;24.53;;;4.67;;
11151;SDS011;5630;49.342;10.802;2022-12-24T10:25:41;17.00;;;4.37;;
11151;SDS011;5630;49.342;10.802;2022-12-24T10:28:30;20.10;;;4.47;;
11151;SDS011;5630;49.342;10.802;2022-12-24T10:31:07;14.90;;;3.37;;
11151;SDS011;5630;49.342;10.802;2022-12-24T10:33:35;19.33;;;3.97;;
11151;SDS011;5630;49.342;10.802;2022-12-24T10:36:04;16.77;;;3.73;;
11151;SDS011;5630;49.342;10.802;2022-12-24T10:38:32;17.87;;;4.80;;
11151;SDS011;5630;49.342;10.802;2022-12-24T10:40:58;23.17;;;5.37;;
11151;SDS011;5630;49.342;10.802;2022-12-24T10:43:25;19.00;;;4.37;;
11151;SDS011;5630;49.342;10.802;2022-12-24T10:46:01;16.73;;;3.87;;
11151;SDS011;5630;49.342;10.802;2022-12-24T10:48:38;17.83;;;4.20;;
11151;SDS011;5630;49.342;10.802;2022-12-24T10:54:11;17.90;;;4.33;;
11151;SDS011;5630;49.342;10.802;2022-12-24T10:56:41;14.90;;;4.17;;
11151;SDS011;5630;49.342;10.802;2022-12-24T10:59:25;13.50;;;3.90;;
11151;SDS011;5630;49.342;10.802;2022-12-24T11:02:09;14.90;;;4.40;;
11151;SDS011;5630;49.342;10.802;2022-12-24T11:04:48;16.60;;;4.77;;
11151;SDS011;5630;49.342;10.802;2022-12-24T11:07:19;16.83;;;4.33;;
11151;SDS011;5630;49.342;10.802;2022-12-24T11:09:56;20.03;;;4.40;;
11151;SDS011;5630;49.342;10.802;2022-12-24T11:12:36;16.67;;;4.17;;
11151;SDS011;5630;49.342;10.802;2022-12-24T11:17:29;16.33;;;4.10;;
11151;SDS011;5630;49.342;10.802;2022-12-24T11:19:56;16.07;;;4.27;;
11151;SDS011;5630;49.342;10.802;2022-12-24T11:22:24;13.87;;;3.30;;
11151;SDS011;5630;49.342;10.802;2022-12-24T11:24:56;21.90;;;4.60;;
11151;SDS011;5630;49.342;10.802;2022-12-24T11:27:43;16.83;;;4.30;;
11151;SDS011;5630;49.342;10.802;2022-12-24T11:32:39;18.37;;;3.80;;
11151;SDS011;5630;49.342;10.802;2022-12-24T11:35:06;16.37;;;4.67;;
11151;SDS011;5630;49.342;10.802;2022-12-24T11:37:33;20.27;;;4.47;;
11151;SDS011;5630;49.342;10.802;2022-12-24T11:39:59;14.83;;;4.00;;
11151;SDS011;5630;49.342;10.802;2022-12-24T11:42:33;16.77;;;4.00;;
11151;SDS011;5630;49.342;10.802;2022-12-24T11:45:05;17.07;;;4.27;;
11151;SDS011;5630;49.342;10.802;2022-12-24T11:47:41;19.07;;;4.37;;
11151;SDS011;5630;49.342;10.802;2022-12-24T11:50:18;15.50;;;4.50;;
11151;SDS011;5630;49.342;10.802;2022-12-24T11:52:46;17.83;;;4.47;;
11151;SDS011;5630;49.342;10.802;2022-12-24T12:00:44;22.20;;;4.47;;
11151;SDS011;5630;49.342;10.802;2022-12-24T12:03:34;21.33;;;4.23;;
11151;SDS011;5630;49.342;10.802;2022-12-24T12:06:02;20.73;;;4.03;;
11151;SDS011;5630;49.342;10.802;2022-12-24T12:08:35;17.27;;;4.47;;
11151;SDS011;5630;49.342;10.802;2022-12-24T12:11:03;15.93;;;4.10;;
11151;SDS011;5630;49.342;10.802;2022-12-24T12:13:36;17.37;;;4.20;;
11151;SDS011;5630;49.342;10.802;2022-12-24T12:19:28;20.20;;;4.37;;
11151;SDS011;5630;49.342;10.802;2022-12-24T12:21:57;19.03;;;4.20;;
11151;SDS011;5630;49.342;10.802;2022-12-24T12:24:28;16.50;;;3.77;;
11151;SDS011;5630;49.342;10.802;2022-12-24T12:27:12;14.70;;;3.97;;
11151;SDS011;5630;49.342;10.802;2022-12-24T12:29:51;18.40;;;4.27;;
11151;SDS011;5630;49.342;10.802;2022-12-24T12:32:29;20.87;;;4.43;;
11151;SDS011;5630;49.342;10.802;2022-12-24T12:37:39;12.97;;;3.67;;
11151;SDS011;5630;49.342;10.802;2022-12-24T12:40:12;15.60;;;4.30;;
11151;SDS011;5630;49.342;10.802;2022-12-24T12:42:39;19.37;;;3.80;;
11151;SDS011;5630;49.342;10.802;2022-12-24T12:45:38;16.23;;;4.07;;
11151;SDS011;5630;49.342;10.802;2022-12-24T12:48:14;15.63;;;3.90;;
11151;SDS011;5630;49.342;10.802;2022-12-24T12:50:53;15.33;;;4.37;;
11151;SDS011;5630;49.342;10.802;2022-12-24T12:56:23;24.00;;;4.67;;
11151;SDS011;5630;49.342;10.802;2022-12-24T12:59:01;15.87;;;4.43;;
11151;SDS011;5630;49.342;10.802;2022-12-24T13:01:49;18.57;;;4.37;;
11151;SDS011;5630;49.342;10.802;2022-12-24T13:09:57;18.00;;;4.30;;
11151;SDS011;5630;49.342;10.802;2022-12-24T13:13:11;15.97;;;3.67;;
11151;SDS011;5630;49.342;10.802;2022-12-24T13:20:47;20.93;;;4.40;;
11151;SDS011;5630;49.342;10.802;2022-12-24T13:23:19;18.47;;;5.33;;
11151;SDS011;5630;49.342;10.802;2022-12-24T13:25:47;21.40;;;10.33;;
11151;SDS011;5630;49.342;10.802;2022-12-24T13:30:47;25.30;;;11.67;;
11151;SDS011;5630;49.342;10.802;2022-12-24T13:36:05;19.17;;;5.23;;
11151;SDS011;5630;49.342;10.802;2022-12-24T13:38:33;20.27;;;9.93;;
11151;SDS011;5630;49.342;10.802;2022-12-24T13:44:27;20.90;;;5.60;;
11151;SDS011;5630;49.342;10.802;2022-12-24T13:49:20;17.70;;;6.17;;
11151;SDS011;5630;49.342;10.802;2022-12-24T13:51:50;21.27;;;11.20;;
11151;SDS011;5630;49.342;10.802;2022-12-24T13:54:17;17.50;;;5.13;;
11151;SDS011;5630;49.342;10.802;2022-12-24T13:56:47;20.07;;;6.53;;
11151;SDS011;5630;49.342;10.802;2022-12-24T13:59:21;20.10;;;7.67;;
11151;SDS011;5630;49.342;10.802;2022-12-24T14:02:00;15.90;;;5.37;;
11151;SDS011;5630;49.342;10.802;2022-12-24T14:04:30;18.00;;;5.67;;
11151;SDS011;5630;49.342;10.802;2022-12-24T14:07:00;20.70;;;12.60;;
11151;SDS011;5630;49.342;10.802;2022-12-24T14:09:28;20.53;;;5.17;;
11151;SDS011;5630;49.342;10.802;2022-12-24T14:14:28;15.53;;;5.00;;
11151;SDS011;5630;49.342;10.802;2022-12-24T14:17:02;16.60;;;5.67;;
11151;SDS011;5630;49.342;10.802;2022-12-24T14:19:40;21.30;;;5.57;;
11151;SDS011;5630;49.342;10.802;2022-12-24T14:27:48;13.10;;;4.10;;
11151;SDS011;5630;49.342;10.802;2022-12-24T14:30:45;13.43;;;4.57;;
11151;SDS011;5630;49.342;10.802;2022-12-24T14:33:28;17.50;;;4.77;;
11151;SDS011;5630;49.342;10.802;2022-12-24T14:35:55;18.23;;;5.70;;
11151;SDS011;5630;49.342;10.802;2022-12-24T14:38:21;18.07;;;5.43;;
11151;SDS011;5630;49.342;10.802;2022-12-24T14:41:08;21.33;;;5.60;;
11151;SDS011;5630;49.342;10.802;2022-12-24T14:43:51;17.67;;;4.67;;
11151;SDS011;5630;49.342;10.802;2022-12-24T14:46:26;14.90;;;4.73;;
11151;SDS011;5630;49.342;10.802;2022-12-24T14:52:08;23.33;;;9.97;;
11151;SDS011;5630;49.342;10.802;2022-12-24T14:54:45;16.73;;;7.07;;
11151;SDS011;5630;49.342;10.802;2022-12-24T14:57:18;19.80;;;5.73;;
11151;SDS011;5630;49.342;10.802;2022-12-24T15:05:05;21.37;;;5.90;;
11151;SDS011;5630;49.342;10.802;2022-12-24T15:07:37;21.93;;;6.10;;
11151;SDS011;5630;49.342;10.802;2022-12-24T15:10:21;20.20;;;6.57;;
11151;SDS011;5630;49.342;10.802;2022-12-24T15:13:06;58.33;;;29.47;;
11151;SDS011;5630;49.342;10.802;2022-12-24T15:15:54;25.53;;;10.77;;
11151;SDS011;5630;49.342;10.802;2022-12-24T15:18:21;17.63;;;6.60;;
11151;SDS011;5630;49.342;10.802;2022-12-24T15:20:51;18.27;;;5.60;;
11151;SDS011;5630;49.342;10.802;2022-12-24T15:23:19;17.17;;;6.73;;
11151;SDS011;5630;49.342;10.802;2022-12-24T15:25:50;19.37;;;6.60;;
11151;SDS011;5630;49.342;10.802;2022-12-24T15:28:16;20.87;;;6.93;;
11151;SDS011;5630;49.342;10.802;2022-12-24T15:30:43;19.93;;;6.97;;
11151;SDS011;5630;49.342;10.802;2022-12-24T15:33:10;15.57;;;5.33;;
11151;SDS011;5630;49.342;10.802;2022-12-24T15:35:54;15.87;;;4.97;;
11151;SDS011;5630;49.342;10.802;2022-12-24T15:38:30;16.90;;;4.53;;
11151;SDS011;5630;49.342;10.802;2022-12-24T15:40:59;15.03;;;4.77;;
11151;SDS011;5630;49.342;10.802;2022-12-24T15:43:28;16.33;;;4.60;;
11151;SDS011;5630;49.342;10.802;2022-12-24T15:45:55;16.07;;;4.93;;
11151;SDS011;5630;49.342;10.802;2022-12-24T15:48:25;14.40;;;5.10;;
11151;SDS011;5630;49.342;10.802;2022-12-24T15:50:56;27.67;;;8.57;;
11151;SDS011;5630;49.342;10.802;2022-12-24T15:53:28;22.73;;;7.23;;
11151;SDS011;5630;49.342;10.802;2022-12-24T15:56:12;24.23;;;8.17;;
11151;SDS011;5630;49.342;10.802;2022-12-24T16:01:40;19.93;;;7.33;;
11151;SDS011;5630;49.342;10.802;2022-12-24T16:04:14;24.90;;;7.83;;
11151;SDS011;5630;49.342;10.802;2022-12-24T16:06:58;20.53;;;7.30;;
11151;SDS011;5630;49.342;10.802;2022-12-24T16:12:00;18.20;;;5.97;;
11151;SDS011;5630;49.342;10.802;2022-12-24T16:14:26;13.17;;;5.03;;
11151;SDS011;5630;49.342;10.802;2022-12-24T16:16:53;14.97;;;5.40;;
11151;SDS011;5630;49.342;10.802;2022-12-24T16:19:24;15.20;;;5.13;;
11151;SDS011;5630;49.342;10.802;2022-12-24T16:21:53;16.40;;;5.13;;
11151;SDS011;5630;49.342;10.802;2022-12-24T16:24:22;15.63;;;4.63;;
11151;SDS011;5630;49.342;10.802;2022-12-24T16:26:51;10.60;;;5.20;;
11151;SDS011;5630;49.342;10.802;2022-12-24T16:29:16;16.97;;;4.60;;